Dinsmore, Canada
Current Conditions -  °F | °C
As of 11:00 PM on Wednesday 22 Oct 2014 (Local Time) from CYXE Reporting Station
Clear Clear  
Wind Chill: 32°   Ceiling: Unl
Heat Index: 32°   Visibility: 15mi
Dew Point: 30°   Wind: 2mph
Humidity: 93%   Direction: NA
Pressure: 29.73"   Gusts: NA
Location:  51.33°N, 107.45°W
Report Text: CYXE 230500Z VRB02KT 15SM SKC 00/M01 A2973 RMK SLP090
Loading
Personal Weather Stations






























Interactive Weather Map
Tropical Storm Tracking
New forecast layout! Learn more

10-Day Weather Forecast

Advertisements
Track Severe Weather on mobile